createdAt,value
2022-10-09T00:01:26.407Z,3.57
2022-10-09T00:03:56.018Z,3.13
2022-10-09T00:06:30.311Z,3.17
2022-10-09T00:09:01.928Z,2.77
2022-10-09T00:11:31.060Z,3.40
2022-10-09T00:14:00.997Z,3.73
2022-10-09T00:16:28.971Z,3.80
2022-10-09T00:18:55.945Z,3.20
2022-10-09T00:21:32.365Z,2.40
2022-10-09T00:24:05.082Z,2.90
2022-10-09T00:26:32.730Z,3.10
2022-10-09T00:28:59.883Z,2.77
2022-10-09T00:31:26.963Z,3.50
2022-10-09T00:33:53.851Z,3.10
2022-10-09T00:36:24.028Z,3.27
2022-10-09T00:38:51.258Z,3.90
2022-10-09T00:41:24.845Z,4.20
2022-10-09T00:44:01.641Z,2.97
2022-10-09T00:46:46.223Z,2.53
2022-10-09T00:49:31.852Z,3.40
2022-10-09T00:52:02.373Z,4.00
2022-10-09T00:54:36.333Z,3.27
2022-10-09T00:57:03.532Z,2.70
2022-10-09T00:59:33.548Z,3.63
2022-10-09T01:02:02.745Z,3.50
2022-10-09T01:04:29.711Z,2.93
2022-10-09T01:07:17.017Z,2.80
2022-10-09T01:09:54.278Z,2.80
2022-10-09T01:13:12.487Z,3.53
2022-10-09T01:15:47.724Z,3.20
2022-10-09T01:19:04.084Z,3.40
2022-10-09T01:21:49.206Z,2.63
2022-10-09T01:24:40.917Z,3.50
2022-10-09T01:27:23.918Z,3.10
2022-10-09T01:29:56.499Z,2.70
2022-10-09T01:32:33.938Z,3.60
2022-10-09T01:35:05.017Z,3.23
2022-10-09T01:37:36.216Z,3.53
2022-10-09T01:40:07.563Z,3.03
2022-10-09T01:42:34.578Z,3.60
2022-10-09T01:45:01.387Z,3.40
2022-10-09T01:47:28.502Z,3.13
2022-10-09T01:50:13.247Z,3.50
2022-10-09T01:52:51.622Z,3.07
2022-10-09T01:55:56.028Z,3.43
2022-10-09T01:58:33.935Z,3.40
2022-10-09T02:01:22.577Z,3.87
2022-10-09T02:03:54.477Z,2.50
2022-10-09T02:06:21.783Z,3.30
2022-10-09T02:08:54.676Z,2.70
2022-10-09T02:11:27.090Z,3.20
2022-10-09T02:13:56.319Z,3.20
2022-10-09T02:16:37.713Z,3.20
2022-10-09T02:19:13.123Z,2.67
2022-10-09T02:21:46.596Z,3.17
2022-10-09T02:24:20.823Z,3.40
2022-10-09T02:26:47.737Z,2.97
2022-10-09T02:29:20.111Z,2.97
2022-10-09T02:31:53.134Z,3.63
2022-10-09T02:34:21.190Z,3.10
2022-10-09T02:36:51.372Z,2.97
2022-10-09T02:39:18.563Z,3.50
2022-10-09T02:41:45.480Z,3.40
2022-10-09T02:44:14.791Z,3.70
2022-10-09T02:46:41.727Z,3.90
2022-10-09T02:49:08.781Z,3.10
2022-10-09T02:51:36.040Z,3.03
2022-10-09T02:54:03.174Z,3.50
2022-10-09T02:56:36.667Z,3.90
2022-10-09T02:59:13.229Z,3.33
2022-10-09T03:01:40.161Z,3.70
2022-10-09T03:04:10.243Z,3.17
2022-10-09T03:06:37.086Z,3.20
2022-10-09T03:09:04.514Z,3.40
2022-10-09T03:11:33.752Z,3.50
2022-10-09T03:14:00.565Z,3.10
2022-10-09T03:16:27.786Z,3.37
2022-10-09T03:18:55.198Z,2.90
2022-10-09T03:21:26.946Z,3.07
2022-10-09T03:23:54.839Z,4.10
2022-10-09T03:26:25.556Z,2.83
2022-10-09T03:29:01.063Z,2.60
2022-10-09T03:31:50.425Z,3.33
2022-10-09T03:34:17.417Z,3.97
2022-10-09T03:36:44.354Z,2.90
2022-10-09T03:39:11.317Z,3.10
2022-10-09T03:41:40.838Z,3.03
2022-10-09T03:44:07.716Z,2.90
2022-10-09T03:46:34.613Z,2.80
2022-10-09T03:49:04.439Z,2.63
2022-10-09T03:51:31.320Z,3.10
2022-10-09T03:53:58.345Z,2.70
2022-10-09T03:56:25.243Z,2.70
2022-10-09T03:58:54.119Z,2.60
2022-10-09T04:01:21.035Z,3.13
2022-10-09T04:03:50.410Z,2.83
2022-10-09T04:06:20.256Z,2.73
2022-10-09T04:08:49.312Z,2.73
2022-10-09T04:11:18.824Z,2.90
2022-10-09T04:13:48.193Z,2.53
2022-10-09T04:16:15.178Z,3.23
2022-10-09T04:18:47.887Z,2.63
2022-10-09T04:21:17.368Z,3.23
2022-10-09T04:23:46.405Z,3.13
2022-10-09T04:26:13.866Z,2.70
2022-10-09T04:28:40.767Z,2.30
2022-10-09T04:31:07.939Z,2.53
2022-10-09T04:33:36.956Z,2.37
2022-10-09T04:36:04.102Z,3.90
2022-10-09T04:38:36.879Z,3.27
2022-10-09T04:41:06.984Z,3.03
2022-10-09T04:43:34.914Z,2.70
2022-10-09T04:46:12.025Z,2.60
2022-10-09T04:48:45.933Z,3.20
2022-10-09T04:51:19.333Z,2.50
2022-10-09T04:53:46.572Z,2.90
2022-10-09T04:56:18.729Z,2.50
2022-10-09T04:58:47.350Z,4.50
2022-10-09T05:01:30.992Z,3.27
2022-10-09T05:03:59.863Z,3.17
2022-10-09T05:06:29.253Z,2.97
2022-10-09T05:08:56.502Z,2.90
2022-10-09T05:11:25.467Z,3.00
2022-10-09T05:13:57.739Z,3.20
2022-10-09T05:16:31.648Z,2.77
2022-10-09T05:19:00.079Z,4.40
2022-10-09T05:21:30.289Z,3.47
2022-10-09T05:23:57.641Z,2.93
2022-10-09T05:26:26.582Z,2.30
2022-10-09T05:28:56.184Z,3.90
2022-10-09T05:31:27.111Z,2.70
2022-10-09T05:33:56.145Z,3.17
2022-10-09T05:36:25.919Z,3.63
2022-10-09T05:38:52.728Z,3.23
2022-10-09T05:41:22.032Z,3.93
2022-10-09T05:43:49.698Z,3.20
2022-10-09T05:46:16.449Z,3.60
2022-10-09T05:48:52.113Z,3.47
2022-10-09T05:51:30.652Z,3.60
2022-10-09T05:53:58.959Z,3.10
2022-10-09T05:56:38.533Z,3.03
2022-10-09T05:59:10.001Z,3.20
2022-10-09T06:01:42.351Z,2.90
2022-10-09T06:04:17.616Z,3.80
2022-10-09T06:06:44.755Z,3.20
2022-10-09T06:09:12.089Z,3.40
2022-10-09T06:11:42.669Z,3.00
2022-10-09T06:14:15.704Z,2.97
2022-10-09T06:16:46.085Z,3.37
2022-10-09T06:19:16.183Z,3.00
2022-10-09T06:21:44.073Z,3.07
2022-10-09T06:24:28.279Z,3.90
2022-10-09T06:26:56.313Z,2.80
2022-10-09T06:29:23.195Z,3.40
2022-10-09T06:31:50.077Z,3.37
2022-10-09T06:34:21.528Z,2.97
2022-10-09T06:36:48.370Z,2.87
2022-10-09T06:39:15.463Z,2.60
2022-10-09T06:41:44.356Z,2.60
2022-10-09T06:44:17.281Z,3.07
2022-10-09T06:46:53.890Z,3.17
2022-10-09T06:49:23.322Z,2.77
2022-10-09T06:51:54.633Z,2.90
2022-10-09T06:54:21.439Z,2.50
2022-10-09T06:56:50.789Z,2.60
2022-10-09T06:59:19.707Z,2.63
2022-10-09T07:01:46.594Z,2.70
2022-10-09T07:04:18.213Z,3.03
2022-10-09T07:06:48.271Z,2.70
2022-10-09T07:09:17.892Z,2.70
2022-10-09T07:11:49.334Z,2.47
2022-10-09T07:14:16.346Z,2.60
2022-10-09T07:16:46.117Z,2.60
2022-10-09T07:19:15.051Z,3.07
2022-10-09T07:21:44.517Z,2.60
2022-10-09T07:24:12.917Z,3.07
2022-10-09T07:26:46.561Z,3.03
2022-10-09T07:29:18.774Z,2.57
2022-10-09T07:31:45.714Z,3.53
2022-10-09T07:34:12.700Z,3.07
2022-10-09T07:36:42.561Z,3.10
2022-10-09T07:39:09.431Z,3.17
2022-10-09T07:41:36.480Z,3.00
2022-10-09T07:44:03.492Z,3.30
2022-10-09T07:46:33.909Z,4.00
2022-10-09T07:49:03.915Z,3.43
2022-10-09T07:51:33.993Z,3.07
2022-10-09T07:54:04.521Z,3.37
2022-10-09T07:56:37.836Z,3.90
2022-10-09T07:59:14.665Z,3.63
2022-10-09T08:01:42.075Z,3.50
2022-10-09T08:04:11.491Z,3.17
2022-10-09T08:06:40.951Z,3.73
2022-10-09T08:09:11.724Z,3.97
2022-10-09T08:11:41.272Z,2.87
2022-10-09T08:14:18.241Z,3.00
2022-10-09T08:16:46.649Z,3.03
2022-10-09T08:19:15.694Z,3.20
2022-10-09T08:21:42.621Z,3.30
2022-10-09T08:24:11.090Z,4.40
2022-10-09T08:26:40.479Z,4.00
2022-10-09T08:29:08.496Z,3.73
2022-10-09T08:31:37.656Z,3.00
2022-10-09T08:34:09.302Z,3.63
2022-10-09T08:36:36.167Z,3.60
2022-10-09T08:39:04.090Z,3.00
2022-10-09T08:41:51.633Z,2.90
2022-10-09T08:44:29.093Z,3.00
2022-10-09T08:47:01.464Z,4.00
2022-10-09T08:50:11.605Z,3.13
2022-10-09T08:52:58.624Z,2.70
2022-10-09T08:55:37.894Z,3.00
2022-10-09T08:58:06.602Z,3.30
2022-10-09T09:00:47.021Z,2.90
2022-10-09T09:04:10.851Z,3.13
2022-10-09T09:06:55.968Z,3.03
2022-10-09T09:09:53.528Z,2.60
2022-10-09T09:12:34.653Z,2.93
2022-10-09T09:15:23.137Z,2.87
2022-10-09T09:18:18.711Z,2.97
2022-10-09T09:20:57.545Z,2.40
2022-10-09T09:23:42.846Z,2.13
2022-10-09T09:26:18.259Z,2.60
2022-10-09T09:29:05.313Z,2.23
2022-10-09T09:31:37.222Z,2.60
2022-10-09T09:34:30.539Z,2.50
2022-10-09T09:37:01.577Z,2.13
2022-10-09T09:42:21.208Z,2.70
2022-10-09T09:44:59.911Z,2.40
2022-10-09T09:47:43.352Z,3.13
2022-10-09T09:50:35.169Z,2.57
2022-10-09T09:53:07.555Z,2.00
2022-10-09T09:55:34.935Z,2.70
2022-10-09T09:58:08.452Z,2.90
2022-10-09T10:00:35.965Z,2.73
2022-10-09T10:03:16.249Z,2.40
2022-10-09T10:05:45.976Z,1.93
2022-10-09T10:08:30.136Z,2.40
2022-10-09T10:11:07.074Z,1.70
2022-10-09T10:13:46.209Z,2.20
2022-10-09T10:16:26.235Z,2.13
2022-10-09T10:18:59.448Z,2.10
2022-10-09T10:21:26.372Z,1.87
2022-10-09T10:24:03.472Z,2.47
2022-10-09T10:26:37.852Z,2.37
2022-10-09T10:29:24.023Z,2.00
2022-10-09T10:32:05.627Z,1.53
2022-10-09T10:34:49.509Z,1.90
2022-10-09T10:37:57.533Z,3.23
2022-10-09T10:40:37.686Z,2.40
2022-10-09T10:43:10.824Z,2.10
2022-10-09T10:45:58.739Z,1.87
2022-10-09T10:48:40.289Z,1.83
2022-10-09T10:51:35.970Z,1.70
2022-10-09T10:54:20.793Z,1.80
2022-10-09T10:57:21.100Z,1.80
2022-10-09T11:00:00.286Z,2.03
2022-10-09T11:02:33.464Z,2.20
2022-10-09T11:05:33.527Z,2.30
2022-10-09T11:08:27.992Z,1.80
2022-10-09T11:11:24.006Z,1.97
2022-10-09T11:14:25.915Z,1.40
2022-10-09T11:17:34.893Z,2.20
2022-10-09T11:20:13.635Z,2.00
2022-10-09T11:23:05.981Z,1.97
2022-10-09T11:25:54.176Z,2.43
2022-10-09T11:28:32.610Z,2.20
2022-10-09T11:31:02.629Z,4.73
2022-10-09T11:33:48.160Z,2.73
2022-10-09T11:36:47.307Z,2.90
2022-10-09T11:39:24.332Z,1.70
2022-10-09T11:41:55.376Z,1.80
2022-10-09T11:44:47.130Z,2.00
2022-10-09T11:47:35.509Z,2.00
2022-10-09T11:50:34.723Z,2.10
2022-10-09T11:53:15.327Z,1.73
2022-10-09T11:55:43.282Z,2.40
2022-10-09T11:58:22.488Z,2.60
2022-10-09T12:00:55.741Z,1.27
2022-10-09T12:03:33.499Z,2.20
2022-10-09T12:06:16.927Z,1.57
2022-10-09T12:09:04.156Z,2.23
2022-10-09T12:11:34.554Z,1.87
2022-10-09T12:14:08.271Z,1.37
2022-10-09T12:16:45.701Z,2.10
2022-10-09T12:19:17.135Z,1.97
2022-10-09T12:21:50.595Z,2.30
2022-10-09T12:24:23.412Z,1.67
2022-10-09T12:26:51.800Z,1.60
2022-10-09T12:29:28.736Z,1.63
2022-10-09T12:32:04.199Z,1.80
2022-10-09T12:34:37.946Z,2.20
2022-10-09T12:37:20.994Z,1.80
2022-10-09T12:39:53.597Z,1.80
2022-10-09T12:42:27.129Z,1.47
2022-10-09T12:44:55.889Z,1.60
2022-10-09T12:47:29.343Z,1.63
2022-10-09T12:50:25.636Z,1.50
2022-10-09T12:53:05.200Z,1.60
2022-10-09T12:55:38.609Z,2.03
2022-10-09T12:58:30.268Z,2.40
2022-10-09T13:01:04.681Z,1.80
2022-10-09T13:03:37.301Z,2.30
2022-10-09T13:06:19.066Z,1.70
2022-10-09T13:09:05.544Z,1.80
2022-10-09T13:11:38.621Z,1.80
2022-10-09T13:14:07.729Z,2.00
2022-10-09T13:16:47.612Z,1.60
2022-10-09T13:19:51.138Z,1.70
2022-10-09T13:22:24.945Z,1.40
2022-10-09T13:24:54.831Z,1.70
2022-10-09T13:27:32.116Z,1.80
2022-10-09T13:30:00.499Z,1.57
2022-10-09T13:32:30.153Z,1.43
2022-10-09T13:34:59.505Z,1.80
2022-10-09T13:37:27.565Z,1.50
2022-10-09T13:39:59.470Z,1.60
2022-10-09T13:42:38.552Z,1.60
2022-10-09T13:45:06.270Z,1.63
2022-10-09T13:47:33.236Z,1.67
2022-10-09T13:50:03.882Z,1.40
2022-10-09T13:52:33.150Z,2.03
2022-10-09T13:55:00.076Z,1.33
2022-10-09T13:57:26.899Z,2.03
2022-10-09T13:59:53.941Z,2.30
2022-10-09T14:02:23.467Z,1.90
2022-10-09T14:04:50.541Z,1.73
2022-10-09T14:07:17.410Z,2.00
2022-10-09T14:09:46.387Z,2.23
2022-10-09T14:12:13.208Z,2.03
2022-10-09T14:14:40.131Z,2.50
2022-10-09T14:17:06.997Z,1.63
2022-10-09T14:19:36.424Z,1.70
2022-10-09T14:22:03.232Z,1.70
2022-10-09T14:24:32.613Z,1.47
2022-10-09T14:26:59.371Z,1.70
2022-10-09T14:29:26.224Z,2.03
2022-10-09T14:31:53.091Z,1.80
2022-10-09T14:34:22.677Z,1.90
2022-10-09T14:36:52.308Z,1.60
2022-10-09T14:39:19.278Z,2.13
2022-10-09T14:41:50.779Z,1.70
2022-10-09T14:44:17.594Z,1.27
2022-10-09T14:46:44.477Z,1.90
2022-10-09T14:49:11.585Z,2.07
2022-10-09T14:51:40.749Z,2.20
2022-10-09T14:54:09.447Z,1.80
2022-10-09T14:56:36.402Z,1.60
2022-10-09T14:59:05.839Z,1.77
2022-10-09T15:01:33.207Z,2.00
2022-10-09T15:04:04.774Z,2.40
2022-10-09T15:06:32.863Z,2.07
2022-10-09T15:09:05.478Z,1.67
2022-10-09T15:11:38.371Z,1.53
2022-10-09T15:14:09.836Z,1.53
2022-10-09T15:16:39.244Z,2.00
2022-10-09T15:19:06.167Z,2.30
2022-10-09T15:21:36.642Z,2.17
2022-10-09T15:24:05.346Z,1.90
2022-10-09T15:26:36.282Z,1.90
2022-10-09T15:29:08.300Z,2.50
2022-10-09T15:31:40.738Z,2.10
2022-10-09T15:34:10.533Z,2.40
2022-10-09T15:36:39.917Z,1.97
2022-10-09T15:39:10.311Z,2.30
2022-10-09T15:41:39.873Z,2.57
2022-10-09T15:44:19.577Z,2.00
2022-10-09T15:46:49.871Z,2.70
2022-10-09T15:49:17.283Z,2.20
2022-10-09T15:51:46.623Z,2.00
2022-10-09T15:54:14.691Z,2.40
2022-10-09T15:56:44.235Z,2.30
2022-10-09T15:59:13.138Z,1.83
2022-10-09T16:01:43.267Z,2.43
2022-10-09T16:04:10.819Z,2.33
2022-10-09T16:06:38.079Z,2.77
2022-10-09T16:09:05.822Z,2.60
2022-10-09T16:11:34.442Z,3.07
2022-10-09T16:14:01.457Z,3.80
2022-10-09T16:16:33.442Z,2.70
2022-10-09T16:19:04.310Z,3.10
2022-10-09T16:21:33.672Z,2.90
2022-10-09T16:24:00.878Z,2.57
2022-10-09T16:26:31.241Z,3.23
2022-10-09T16:29:02.083Z,3.00
2022-10-09T16:31:34.737Z,3.33
2022-10-09T16:34:06.550Z,2.93
2022-10-09T16:36:36.222Z,3.00
2022-10-09T16:39:07.964Z,4.10
2022-10-09T16:41:39.554Z,3.30
2022-10-09T16:44:13.918Z,3.23
2022-10-09T16:46:43.239Z,3.23
2022-10-09T16:49:22.680Z,3.40
2022-10-09T16:51:51.783Z,4.13
2022-10-09T16:54:21.652Z,2.73
2022-10-09T16:56:48.529Z,3.87
2022-10-09T16:59:15.323Z,3.40
2022-10-09T17:01:46.378Z,3.53
2022-10-09T17:04:13.502Z,3.20
2022-10-09T17:06:44.548Z,3.33
2022-10-09T17:09:13.902Z,3.33
2022-10-09T17:11:41.898Z,3.33
2022-10-09T17:14:08.711Z,3.53
2022-10-09T17:16:38.494Z,3.20
2022-10-09T17:19:08.491Z,4.90
2022-10-09T17:21:40.045Z,2.90
2022-10-09T17:24:07.745Z,3.63
2022-10-09T17:26:38.172Z,2.93
2022-10-09T17:29:10.059Z,3.90
2022-10-09T17:31:39.469Z,2.63
2022-10-09T17:34:08.883Z,2.70
2022-10-09T17:36:39.019Z,2.07
2022-10-09T17:39:11.212Z,3.00
2022-10-09T17:41:40.238Z,3.20
2022-10-09T17:44:07.156Z,2.53
2022-10-09T17:46:34.025Z,3.00
2022-10-09T17:49:03.478Z,3.10
2022-10-09T17:51:34.226Z,2.83
2022-10-09T17:54:09.545Z,2.60
2022-10-09T17:56:39.056Z,2.27
2022-10-09T17:59:08.817Z,2.50
2022-10-09T18:01:36.088Z,3.10
2022-10-09T18:04:03.636Z,2.93
2022-10-09T18:06:35.097Z,2.37
2022-10-09T18:09:03.675Z,3.50
2022-10-09T18:11:30.910Z,3.53
2022-10-09T18:13:58.446Z,3.33
2022-10-09T18:16:35.723Z,2.70
2022-10-09T18:19:12.242Z,3.17
2022-10-09T18:21:48.123Z,2.93
2022-10-09T18:24:20.457Z,4.10
2022-10-09T18:26:49.348Z,3.43
2022-10-09T18:29:16.149Z,2.70
2022-10-09T18:31:42.987Z,3.27
2022-10-09T18:34:10.239Z,2.97
2022-10-09T18:36:39.658Z,4.03
2022-10-09T18:39:15.710Z,3.57
2022-10-09T18:41:45.409Z,2.83
2022-10-09T18:44:17.482Z,3.30
2022-10-09T18:46:59.771Z,2.77
2022-10-09T18:49:33.085Z,3.97
2022-10-09T18:52:02.565Z,2.60
2022-10-09T18:54:31.035Z,2.97
2022-10-09T18:56:58.302Z,2.40
2022-10-09T18:59:27.336Z,2.60
2022-10-09T19:01:57.225Z,2.93
2022-10-09T19:04:31.164Z,2.80
2022-10-09T19:07:01.092Z,3.47
2022-10-09T19:09:27.943Z,3.13
2022-10-09T19:11:54.852Z,2.50
2022-10-09T19:14:24.017Z,2.90
2022-10-09T19:16:53.345Z,3.23
2022-10-09T19:19:20.233Z,3.67
2022-10-09T19:21:49.202Z,3.43
2022-10-09T19:24:15.986Z,2.70
2022-10-09T19:26:42.847Z,2.67
2022-10-09T19:29:10.290Z,2.43
2022-10-09T19:31:37.107Z,3.40
2022-10-09T19:34:10.985Z,2.90
2022-10-09T19:36:40.635Z,2.20
2022-10-09T19:39:08.812Z,2.03
2022-10-09T19:41:35.928Z,3.00
2022-10-09T19:44:02.817Z,3.40
2022-10-09T19:46:29.749Z,2.90
2022-10-09T19:48:59.158Z,2.63
2022-10-09T19:51:28.469Z,3.57
2022-10-09T19:53:55.629Z,2.83
2022-10-09T19:56:34.162Z,2.60
2022-10-09T19:59:08.112Z,3.17
2022-10-09T20:01:37.547Z,3.10
2022-10-09T20:04:09.102Z,2.50
2022-10-09T20:06:41.118Z,2.80
2022-10-09T20:09:09.832Z,2.50
2022-10-09T20:11:39.228Z,2.30
2022-10-09T20:14:09.752Z,2.80
2022-10-09T20:16:37.226Z,2.17
2022-10-09T20:19:04.754Z,2.63
2022-10-09T20:21:33.440Z,2.40
2022-10-09T20:24:03.154Z,2.50
2022-10-09T20:26:33.184Z,2.60
2022-10-09T20:29:02.650Z,2.20
2022-10-09T20:31:30.402Z,3.00
2022-10-09T20:34:00.792Z,2.60
2022-10-09T20:36:32.555Z,3.90
2022-10-09T20:39:01.972Z,4.10
2022-10-09T20:41:30.659Z,2.57
2022-10-09T20:44:00.306Z,2.47
2022-10-09T20:46:37.591Z,2.47
2022-10-09T20:49:11.371Z,3.10
2022-10-09T20:51:39.322Z,2.17
2022-10-09T20:54:16.096Z,2.50
2022-10-09T20:56:45.482Z,2.33
2022-10-09T20:59:13.050Z,1.97
2022-10-09T21:01:42.970Z,2.10
2022-10-09T21:04:11.086Z,3.03
2022-10-09T21:06:40.482Z,2.40
2022-10-09T21:09:10.361Z,2.57
2022-10-09T21:11:41.404Z,2.83
2022-10-09T21:14:10.864Z,2.90
2022-10-09T21:16:40.770Z,2.40
2022-10-09T21:19:08.095Z,2.77
2022-10-09T21:21:37.116Z,2.30
2022-10-09T21:24:04.108Z,1.90
2022-10-09T21:26:35.781Z,2.27
2022-10-09T21:29:04.577Z,1.97
2022-10-09T21:31:32.717Z,2.53
2022-10-09T21:34:01.305Z,2.77
2022-10-09T21:37:08.472Z,2.20
2022-10-09T21:39:31.974Z,2.67
2022-10-09T21:41:59.285Z,2.10
2022-10-09T21:44:26.167Z,2.30
2022-10-09T21:46:53.021Z,2.47
2022-10-09T21:49:26.086Z,2.20
2022-10-09T21:51:53.631Z,2.50
2022-10-09T21:54:23.393Z,3.23
2022-10-09T21:56:50.261Z,3.17
2022-10-09T21:59:17.101Z,3.30
2022-10-09T22:01:46.053Z,2.80
2022-10-09T22:04:12.896Z,3.17
2022-10-09T22:06:41.092Z,2.77
2022-10-09T22:09:07.979Z,2.90
2022-10-09T22:11:34.815Z,3.57
2022-10-09T22:14:04.699Z,2.70
2022-10-09T22:16:34.173Z,3.20
2022-10-09T22:19:06.226Z,2.30
2022-10-09T22:21:35.951Z,2.70
2022-10-09T22:24:02.786Z,2.90
2022-10-09T22:26:29.614Z,2.80
2022-10-09T22:29:00.987Z,2.23
2022-10-09T22:31:30.375Z,3.00
2022-10-09T22:33:59.974Z,2.37
2022-10-09T22:36:30.900Z,4.40
2022-10-09T22:39:01.438Z,2.30
2022-10-09T22:41:32.952Z,2.60
2022-10-09T22:44:00.840Z,2.70
2022-10-09T22:46:37.215Z,2.20
2022-10-09T22:49:05.341Z,2.17
2022-10-09T22:51:35.321Z,3.20
2022-10-09T22:54:02.453Z,3.33
2022-10-09T22:56:34.323Z,2.90
2022-10-09T22:59:01.691Z,3.10
2022-10-09T23:01:48.291Z,2.17
2022-10-09T23:04:17.238Z,2.83
2022-10-09T23:06:45.348Z,2.73
2022-10-09T23:09:15.539Z,2.80
2022-10-09T23:11:42.960Z,3.17
2022-10-09T23:14:13.461Z,2.63
2022-10-09T23:16:41.066Z,2.63
2022-10-09T23:19:08.316Z,2.10
2022-10-09T23:21:40.179Z,2.40
2022-10-09T23:24:08.356Z,2.70
2022-10-09T23:26:38.201Z,2.17
2022-10-09T23:29:14.473Z,2.60
2022-10-09T23:31:41.315Z,2.23
2022-10-09T23:34:10.860Z,2.57
2022-10-09T23:36:37.751Z,2.10
2022-10-09T23:39:06.285Z,3.03
2022-10-09T23:41:33.463Z,2.00
2022-10-09T23:44:00.249Z,2.73
2022-10-09T23:46:30.276Z,2.70
2022-10-09T23:48:57.106Z,2.27
2022-10-09T23:51:28.191Z,2.13
2022-10-09T23:54:00.693Z,2.30
2022-10-09T23:56:33.760Z,2.33
2022-10-09T23:59:02.845Z,2.40
